createdAt,value
2022-10-17T00:11:24.990Z,0.11
2022-10-17T00:23:25.385Z,0.45
2022-10-17T00:35:25.848Z,0.18
2022-10-17T00:47:26.298Z,0.21
2022-10-17T00:59:26.764Z,0.00
2022-10-17T01:11:27.234Z,0.08
2022-10-17T01:23:27.628Z,0.28
2022-10-17T01:35:28.109Z,0.00
2022-10-17T01:47:28.883Z,0.21
2022-10-17T01:59:29.030Z,0.01
2022-10-17T02:11:29.477Z,0.04
2022-10-17T02:23:29.925Z,0.00
2022-10-17T02:35:30.398Z,0.01
2022-10-17T02:47:30.818Z,0.00
2022-10-17T02:59:31.304Z,0.00
2022-10-17T03:11:31.748Z,0.03
2022-10-17T03:23:32.179Z,0.07
2022-10-17T03:35:32.664Z,0.13
2022-10-17T03:47:33.242Z,0.00
2022-10-17T03:59:33.565Z,0.00
2022-10-17T04:11:34.023Z,0.00
2022-10-17T04:23:34.469Z,0.12
2022-10-17T04:35:34.905Z,0.09
2022-10-17T04:47:35.374Z,0.17
2022-10-17T04:59:35.844Z,0.02
2022-10-17T05:11:36.279Z,0.21
2022-10-17T05:23:36.713Z,0.09
2022-10-17T05:35:37.173Z,0.12
2022-10-17T05:47:37.660Z,0.12
2022-10-17T05:59:38.110Z,0.23
2022-10-17T06:11:38.540Z,0.16
2022-10-17T06:23:39.018Z,0.19
2022-10-17T06:35:39.425Z,0.36
2022-10-17T06:47:39.900Z,0.02
2022-10-17T06:59:40.323Z,0.22
2022-10-17T07:11:40.796Z,0.13
2022-10-17T07:23:41.283Z,0.07
2022-10-17T07:35:41.710Z,0.60
2022-10-17T07:47:42.198Z,0.87
2022-10-17T07:59:42.618Z,0.67
2022-10-17T08:11:43.111Z,1.46
2022-10-17T08:23:43.555Z,1.54
2022-10-17T08:35:43.983Z,1.12
2022-10-17T08:47:44.436Z,1.19
2022-10-17T08:59:44.899Z,1.26
2022-10-17T09:11:45.335Z,1.75
2022-10-17T09:23:45.800Z,1.74
2022-10-17T09:35:46.256Z,1.68
2022-10-17T09:47:46.717Z,2.23
2022-10-17T10:10:02.782Z,2.16
2022-10-17T10:22:03.243Z,2.13
2022-10-17T10:34:03.727Z,2.37
2022-10-17T10:46:04.177Z,2.27
2022-10-17T10:58:04.627Z,2.99
2022-10-17T11:10:05.077Z,3.28
2022-10-17T11:22:05.533Z,2.46
2022-10-17T11:34:05.956Z,1.80
2022-10-17T11:46:06.408Z,2.52
2022-10-17T11:58:06.921Z,2.59
2022-10-17T12:10:07.368Z,2.54
2022-10-17T12:22:07.793Z,2.26
2022-10-17T12:34:08.268Z,2.64
2022-10-17T12:46:08.685Z,2.49
2022-10-17T12:58:09.209Z,2.19
2022-10-17T13:10:12.540Z,1.44
2022-10-17T13:22:10.096Z,2.31
2022-10-17T13:34:10.523Z,1.87
2022-10-17T13:46:32.540Z,1.64
2022-10-17T13:58:11.491Z,0.69
2022-10-17T14:10:11.950Z,1.91
2022-10-17T14:22:12.415Z,1.40
2022-10-17T14:34:12.867Z,1.19
2022-10-17T14:46:13.314Z,1.04
2022-10-17T14:58:13.728Z,0.79
2022-10-17T15:10:14.198Z,1.06
2022-10-17T15:22:14.693Z,0.33
2022-10-17T15:34:15.147Z,0.64
2022-10-17T15:46:16.018Z,0.17
2022-10-17T15:58:16.036Z,0.13
2022-10-17T16:10:16.488Z,0.13
2022-10-17T16:22:16.960Z,0.03
2022-10-17T16:34:17.396Z,0.22
2022-10-17T16:46:17.859Z,0.08
2022-10-17T16:58:18.434Z,0.23
2022-10-17T17:10:18.775Z,0.07
2022-10-17T17:22:19.205Z,0.01
2022-10-17T17:34:19.668Z,0.00
2022-10-17T17:46:20.152Z,0.10
2022-10-17T17:58:20.614Z,0.02
2022-10-17T18:10:21.051Z,0.07
2022-10-17T18:22:21.485Z,0.02
2022-10-17T18:34:21.949Z,0.38
2022-10-17T18:46:22.410Z,0.12
2022-10-17T18:58:22.827Z,0.22
2022-10-17T19:10:23.633Z,0.30
2022-10-17T19:22:23.794Z,0.14
2022-10-17T19:34:24.215Z,0.37
2022-10-17T19:46:24.640Z,0.18
2022-10-17T19:58:25.116Z,0.55
2022-10-17T20:10:25.581Z,0.34
2022-10-17T20:22:26.013Z,0.42
2022-10-17T20:34:26.483Z,0.74
2022-10-17T20:46:36.855Z,0.48
2022-10-17T20:58:27.390Z,0.37
2022-10-17T21:10:35.285Z,0.96
2022-10-17T21:22:28.505Z,0.46
2022-10-17T21:34:28.724Z,0.34
2022-10-17T21:46:29.222Z,0.50
2022-10-17T21:58:29.737Z,0.45
2022-10-17T22:10:30.100Z,0.44
2022-10-17T22:22:30.555Z,0.39
2022-10-17T22:34:31.031Z,0.51
2022-10-17T22:46:31.463Z,0.39
2022-10-17T22:58:31.922Z,0.31
2022-10-17T23:10:32.380Z,0.88
2022-10-17T23:22:33.037Z,0.06
2022-10-17T23:34:33.256Z,0.12
2022-10-17T23:46:33.724Z,0.17
2022-10-17T23:58:34.175Z,0.30
